Time;durP1;ratioP1;P1;durP2;ratioP2;P2;SDS_P1;SDS_P2;PMS_P1;PMS_P2;Temp;Humidity;BMP_temperature;BMP_pressure;BME280_temperature;BME280_humidity;BME280_pressure;Samples;Min_cycle;Max_cycle;Signal;HPM_P1;HPM_P2
2022/07/27 00:00:23;;;;;;;2.23;1.70;;;14.60;90.60;;;;;;5092883;28;20474;-59
2022/07/27 00:02:52;;;;;;;8.60;1.73;;;14.50;90.80;;;;;;5092838;28;20521;-59
2022/07/27 00:05:19;;;;;;;3.13;1.80;;;14.50;91.00;;;;;;5092450;28;20525;-59
2022/07/27 00:07:47;;;;;;;6.33;1.23;;;14.50;91.30;;;;;;5092611;28;20443;-60
2022/07/27 00:10:14;;;;;;;6.43;1.90;;;14.50;91.50;;;;;;5092257;28;21095;-60
2022/07/27 00:12:42;;;;;;;3.97;1.83;;;14.50;91.60;;;;;;5092842;28;20445;-59
2022/07/27 00:15:11;;;;;;;4.93;1.80;;;14.40;91.60;;;;;;5092634;28;20478;-59
2022/07/27 00:17:39;;;;;;;5.80;2.03;;;14.40;91.90;;;;;;5092787;28;20549;-60
2022/07/27 00:20:09;;;;;;;5.03;2.30;;;14.40;92.00;;;;;;5092776;28;21025;-59
2022/07/27 00:22:36;;;;;;;3.97;1.97;;;14.40;92.10;;;;;;5092994;28;20446;-60
2022/07/27 00:25:03;;;;;;;7.13;2.03;;;14.30;92.30;;;;;;5093654;28;20494;-60
2022/07/27 00:27:30;;;;;;;3.83;1.53;;;14.30;92.40;;;;;;5097049;28;20823;-59
2022/07/27 00:29:57;;;;;;;5.30;1.47;;;14.30;92.70;;;;;;5096843;28;20557;-59
2022/07/27 00:32:25;;;;;;;5.63;1.80;;;14.30;92.80;;;;;;5096769;28;20533;-59
2022/07/27 00:34:52;;;;;;;7.33;1.77;;;14.30;92.90;;;;;;5096931;28;20588;-58
2022/07/27 00:37:20;;;;;;;4.00;1.53;;;14.30;93.10;;;;;;5096908;28;20529;-59
2022/07/27 00:39:48;;;;;;;3.63;1.60;;;14.30;93.20;;;;;;5096709;28;20561;-59
2022/07/27 00:42:15;;;;;;;4.10;1.70;;;14.30;93.40;;;;;;5096665;28;20456;-57
2022/07/27 00:44:42;;;;;;;3.83;1.50;;;14.30;93.40;;;;;;5096586;28;20439;-58
2022/07/27 00:47:09;;;;;;;5.73;2.67;;;14.30;93.50;;;;;;5097010;28;20453;-58
2022/07/27 00:49:36;;;;;;;6.07;1.97;;;14.30;93.60;;;;;;5096459;28;20452;-59
2022/07/27 00:52:04;;;;;;;8.23;2.03;;;14.20;94.00;;;;;;5096320;28;20477;-60
2022/07/27 00:54:32;;;;;;;7.37;1.80;;;14.20;93.90;;;;;;5096216;28;20907;-58
2022/07/27 00:57:00;;;;;;;5.50;1.70;;;14.20;94.00;;;;;;5096967;28;20858;-59
2022/07/27 00:59:28;;;;;;;3.93;1.67;;;14.20;94.20;;;;;;5096013;28;20457;-58
2022/07/27 01:01:55;;;;;;;5.13;1.90;;;14.20;94.30;;;;;;5095996;28;20446;-59
2022/07/27 01:04:22;;;;;;;5.33;1.70;;;14.10;94.50;;;;;;5096135;28;20545;-60
2022/07/27 01:06:49;;;;;;;4.70;1.77;;;14.10;94.60;;;;;;5100427;28;20529;-60
2022/07/27 01:12:03;;;;;;;2.80;1.70;;;14.10;95.00;;;;;;5097245;28;20434;-60
2022/07/27 01:14:30;;;;;;;4.87;1.83;;;14.10;95.00;;;;;;5095443;28;20537;-58
2022/07/27 01:16:57;;;;;;;4.60;1.40;;;14.10;95.00;;;;;;5097573;28;20452;-57
2022/07/27 01:19:24;;;;;;;6.00;1.77;;;14.10;95.30;;;;;;5098588;28;20453;-59
2022/07/27 01:21:53;;;;;;;4.30;1.80;;;14.00;95.20;;;;;;5097485;28;20533;-58
2022/07/27 01:24:20;;;;;;;4.40;2.10;;;14.00;95.20;;;;;;5096692;28;20469;-60
2022/07/27 01:26:47;;;;;;;2.27;1.50;;;14.00;95.30;;;;;;5096186;28;20537;-59
2022/07/27 01:29:15;;;;;;;3.93;1.87;;;14.00;95.40;;;;;;5096008;28;20452;-58
2022/07/27 01:31:43;;;;;;;5.93;1.83;;;13.90;95.40;;;;;;5096895;28;21056;-59
2022/07/27 01:34:10;;;;;;;4.80;1.63;;;13.90;95.50;;;;;;5095556;28;20450;-59
2022/07/27 01:36:37;;;;;;;3.43;1.60;;;13.90;95.60;;;;;;5095228;28;20478;-59
2022/07/27 01:39:06;;;;;;;4.77;1.60;;;13.80;95.80;;;;;;5095491;28;20541;-59
2022/07/27 01:41:33;;;;;;;6.30;1.77;;;13.80;96.10;;;;;;5095677;28;20462;-58
2022/07/27 01:44:00;;;;;;;8.63;2.13;;;13.80;96.20;;;;;;5095303;28;20445;-58
2022/07/27 01:46:27;;;;;;;4.90;1.63;;;13.70;96.30;;;;;;5095393;28;20954;-60
2022/07/27 01:48:55;;;;;;;4.20;1.73;;;13.70;96.40;;;;;;5095417;28;20869;-59
2022/07/27 01:51:22;;;;;;;5.53;1.80;;;13.60;96.90;;;;;;5095369;28;20509;-58
2022/07/27 01:53:49;;;;;;;8.67;1.60;;;13.60;96.80;;;;;;5094948;28;20449;-58
2022/07/27 01:56:18;;;;;;;3.77;2.13;;;13.60;97.10;;;;;;5094977;28;21053;-60
2022/07/27 01:58:45;;;;;;;7.77;1.90;;;13.60;97.00;;;;;;5095216;28;20872;-58
2022/07/27 02:01:13;;;;;;;3.93;1.40;;;13.50;97.10;;;;;;5094588;28;20549;-59
2022/07/27 02:03:40;;;;;;;5.63;1.50;;;13.50;97.20;;;;;;5094999;28;20444;-60
2022/07/27 02:06:08;;;;;;;3.07;1.43;;;13.50;97.30;;;;;;5095102;28;20537;-59
2022/07/27 02:08:36;;;;;;;4.70;1.60;;;13.50;97.40;;;;;;5094786;28;20538;-59
2022/07/27 02:13:50;;;;;;;2.30;1.23;;;13.50;97.60;;;;;;5094649;28;20429;-59
2022/07/27 02:16:18;;;;;;;3.03;1.50;;;13.50;97.60;;;;;;5094418;28;20493;-60
2022/07/27 02:18:46;;;;;;;6.40;2.10;;;13.50;97.70;;;;;;5094569;28;20446;-59
2022/07/27 02:21:13;;;;;;;2.60;1.30;;;13.50;97.70;;;;;;5095035;28;20557;-58
2022/07/27 02:23:41;;;;;;;4.57;1.83;;;13.40;97.70;;;;;;5094729;28;20455;-60
2022/07/27 02:26:09;;;;;;;3.80;1.90;;;13.40;97.80;;;;;;5095020;28;20613;-60
2022/07/27 02:28:36;;;;;;;7.97;1.60;;;13.40;97.90;;;;;;5094138;28;20447;-60
2022/07/27 02:31:05;;;;;;;6.07;1.93;;;13.40;97.90;;;;;;5094368;28;20557;-59
2022/07/27 02:33:32;;;;;;;4.53;1.90;;;13.40;98.00;;;;;;5094350;28;20449;-59
2022/07/27 02:35:59;;;;;;;5.03;1.53;;;13.30;98.40;;;;;;5094323;28;20478;-59
2022/07/27 02:38:27;;;;;;;3.37;1.73;;;13.30;98.10;;;;;;5094634;28;20549;-59
2022/07/27 02:40:54;;;;;;;2.70;1.57;;;13.30;98.00;;;;;;5094497;28;20541;-59
2022/07/27 02:43:21;;;;;;;1.60;1.50;;;13.20;98.00;;;;;;5094214;28;20449;-60
2022/07/27 02:45:48;;;;;;;1.90;1.40;;;13.20;98.10;;;;;;5094175;28;20986;-59
2022/07/27 02:48:17;;;;;;;5.00;1.50;;;13.20;98.20;;;;;;5093284;28;20446;-59
2022/07/27 02:50:44;;;;;;;3.03;1.97;;;13.10;98.20;;;;;;5094414;28;20537;-59
2022/07/27 02:53:11;;;;;;;5.47;1.93;;;13.20;98.40;;;;;;5094604;28;20443;-60
2022/07/27 02:55:38;;;;;;;3.90;1.70;;;13.20;98.30;;;;;;5094663;28;20480;-59
2022/07/27 02:58:06;;;;;;;3.07;1.97;;;13.20;98.20;;;;;;5094033;28;20960;-60
2022/07/27 03:00:33;;;;;;;2.87;1.43;;;13.10;98.10;;;;;;5082800;28;20543;-59
2022/07/27 03:03:01;;;;;;;3.50;1.97;;;13.10;98.20;;;;;;5094196;28;20454;-59
2022/07/27 03:05:29;;;;;;;3.97;1.70;;;13.10;98.30;;;;;;5094545;28;20438;-59
2022/07/27 03:07:57;;;;;;;1.93;1.70;;;13.10;98.30;;;;;;5095844;28;20550;-60
2022/07/27 03:10:24;;;;;;;3.70;1.63;;;13.00;98.20;;;;;;5094328;28;20466;-59
2022/07/27 03:12:51;;;;;;;4.33;1.90;;;13.00;98.30;;;;;;5094342;28;20538;-59
2022/07/27 03:15:18;;;;;;;5.50;3.40;;;13.00;98.50;;;;;;5093091;28;20562;-58
2022/07/27 03:17:46;;;;;;;1.97;1.50;;;13.00;98.70;;;;;;5093392;28;20541;-58
2022/07/27 03:20:13;;;;;;;4.03;2.17;;;13.00;98.70;;;;;;5093743;28;20566;-59
2022/07/27 03:22:41;;;;;;;6.90;1.67;;;12.90;98.70;;;;;;5093721;28;20442;-59
2022/07/27 03:25:09;;;;;;;2.60;1.63;;;12.90;98.80;;;;;;5094340;28;20449;-59
2022/07/27 03:27:36;;;;;;;3.73;1.80;;;12.90;99.00;;;;;;5093266;28;20565;-60
2022/07/27 03:30:05;;;;;;;2.67;2.03;;;12.90;99.10;;;;;;5093181;28;20553;-59
2022/07/27 03:32:32;;;;;;;5.03;1.77;;;12.90;99.10;;;;;;5093453;28;20482;-60
2022/07/27 03:35:00;;;;;;;3.60;1.77;;;12.80;99.20;;;;;;5093158;28;20887;-60
2022/07/27 03:37:27;;;;;;;6.70;2.80;;;12.90;99.30;;;;;;5093807;28;20442;-58
2022/07/27 03:39:55;;;;;;;3.30;2.00;;;12.90;99.40;;;;;;5087955;28;20851;-59
2022/07/27 03:42:22;;;;;;;2.93;1.57;;;12.90;99.40;;;;;;5093330;28;20533;-59
2022/07/27 03:44:50;;;;;;;3.27;1.63;;;12.90;99.50;;;;;;5093202;28;20996;-60
2022/07/27 03:47:18;;;;;;;3.43;1.80;;;13.00;99.70;;;;;;5092895;28;20443;-59
2022/07/27 03:49:46;;;;;;;4.00;1.73;;;13.00;99.80;;;;;;5093086;28;21017;-59
2022/07/27 03:52:13;;;;;;;5.77;2.00;;;13.10;99.90;;;;;;5093726;28;20507;-59
2022/07/27 03:54:40;;;;;;;4.67;2.03;;;13.10;99.80;;;;;;5092624;28;20474;-61
2022/07/27 03:57:09;;;;;;;4.97;1.60;;;13.20;99.80;;;;;;5093244;28;20588;-60
2022/07/27 03:59:36;;;;;;;2.33;1.33;;;13.20;99.60;;;;;;5092407;28;20478;-60
2022/07/27 04:02:04;;;;;;;6.30;1.60;;;13.20;99.60;;;;;;5093395;28;20453;-59
2022/07/27 04:04:31;;;;;;;5.27;2.40;;;13.20;99.60;;;;;;5093294;28;20485;-57
2022/07/27 04:10:02;;;;;;;4.07;1.77;;;13.30;99.40;;;;;;5099140;27;21061;-59
2022/07/27 04:12:29;;;;;;;2.00;1.90;;;13.30;99.50;;;;;;5081984;28;20440;-59
2022/07/27 04:14:56;;;;;;;2.13;1.60;;;13.40;99.60;;;;;;5070194;28;20443;-58
2022/07/27 04:17:24;;;;;;;3.30;1.80;;;13.40;99.70;;;;;;5070377;28;20531;-59
2022/07/27 04:19:51;;;;;;;3.33;2.47;;;13.60;99.80;;;;;;5076454;28;20467;-58
2022/07/27 04:22:18;;;;;;;1.97;1.60;;;13.80;99.40;;;;;;5070360;28;20868;-59
2022/07/27 04:24:45;;;;;;;3.60;1.77;;;13.90;99.00;;;;;;5087846;28;20535;-59
2022/07/27 04:27:14;;;;;;;2.63;1.70;;;13.90;98.90;;;;;;5090585;28;20553;-60
2022/07/27 04:29:41;;;;;;;2.53;1.90;;;13.90;99.00;;;;;;5080294;28;20506;-58
2022/07/27 04:32:09;;;;;;;4.80;1.60;;;13.90;99.00;;;;;;5090139;28;20537;-59
2022/07/27 04:34:36;;;;;;;4.00;1.63;;;14.00;98.90;;;;;;5076613;28;20501;-60
2022/07/27 04:37:03;;;;;;;4.97;2.63;;;14.00;98.70;;;;;;5073224;28;20555;-59
2022/07/27 04:39:30;;;;;;;3.93;2.17;;;14.10;98.60;;;;;;5074223;28;20439;-59
2022/07/27 04:41:57;;;;;;;4.13;2.27;;;14.10;98.50;;;;;;5090076;28;20471;-58
2022/07/27 04:44:26;;;;;;;4.70;2.13;;;14.10;98.40;;;;;;5089900;28;20452;-58
2022/07/27 04:46:53;;;;;;;5.60;2.60;;;14.20;98.30;;;;;;5089965;28;20481;-58
2022/07/27 04:49:21;;;;;;;7.90;2.00;;;14.20;98.20;;;;;;5078738;28;20562;-58
2022/07/27 04:51:48;;;;;;;4.10;2.27;;;14.40;98.40;;;;;;5073656;28;20492;-59
2022/07/27 04:54:15;;;;;;;7.43;3.07;;;14.60;98.00;;;;;;5093042;28;20474;-58
2022/07/27 04:56:42;;;;;;;6.80;2.00;;;14.70;97.60;;;;;;5087013;28;20483;-58
2022/07/27 04:59:10;;;;;;;3.67;2.03;;;14.70;97.30;;;;;;5069466;28;20457;-57
2022/07/27 05:01:38;;;;;;;3.20;1.67;;;14.80;97.10;;;;;;5078337;28;20566;-60
2022/07/27 05:04:06;;;;;;;3.13;2.47;;;14.90;97.00;;;;;;5072290;28;20443;-59
2022/07/27 05:06:33;;;;;;;6.47;2.50;;;14.90;96.90;;;;;;5073918;28;20547;-58
2022/07/27 05:09:00;;;;;;;6.50;2.63;;;15.00;96.40;;;;;;5081103;28;20561;-59
2022/07/27 05:11:28;;;;;;;4.57;2.30;;;15.00;96.30;;;;;;5069265;28;20504;-58
2022/07/27 05:13:55;;;;;;;6.67;2.23;;;15.00;96.10;;;;;;5073632;28;20937;-60
2022/07/27 05:16:22;;;;;;;7.83;2.40;;;15.10;96.00;;;;;;5069186;28;20528;-60
2022/07/27 05:18:51;;;;;;;5.63;2.30;;;15.30;96.00;;;;;;5070555;28;20530;-59
2022/07/27 05:21:18;;;;;;;9.03;2.80;;;15.50;96.00;;;;;;5067124;28;20555;-58
2022/07/27 05:23:45;;;;;;;2.60;2.13;;;15.80;95.00;;;;;;5055730;28;20440;-58
2022/07/27 05:26:13;;;;;;;3.67;2.03;;;16.00;94.10;;;;;;5055565;28;20933;-58
2022/07/27 05:28:40;;;;;;;5.00;2.00;;;16.10;94.00;;;;;;5055231;28;20471;-59
2022/07/27 05:31:07;;;;;;;7.87;2.70;;;16.10;93.50;;;;;;5055349;28;20900;-59
2022/07/27 05:33:35;;;;;;;5.37;2.10;;;16.10;93.20;;;;;;5055588;28;20794;-58
2022/07/27 05:36:04;;;;;;;4.93;2.40;;;16.00;93.20;;;;;;5055258;28;20452;-59
2022/07/27 05:38:33;;;;;;;4.60;2.20;;;16.00;93.00;;;;;;5070989;28;20847;-58
2022/07/27 05:41:01;;;;;;;11.67;3.13;;;16.10;93.00;;;;;;5075297;28;20998;-58
2022/07/27 05:43:28;;;;;;;5.37;2.53;;;16.20;92.70;;;;;;5075465;28;20526;-59
2022/07/27 05:45:55;;;;;;;3.83;2.40;;;16.30;92.40;;;;;;5075927;28;20478;-58
2022/07/27 05:48:22;;;;;;;3.50;1.60;;;16.50;92.50;;;;;;5075374;28;20489;-58
2022/07/27 05:50:50;;;;;;;4.13;2.07;;;16.70;91.70;;;;;;5075265;28;20473;-58
2022/07/27 05:53:18;;;;;;;4.73;1.83;;;16.90;91.30;;;;;;5075735;28;20447;-58
2022/07/27 05:55:46;;;;;;;3.37;2.00;;;17.00;90.90;;;;;;5075082;28;20455;-58
2022/07/27 05:58:13;;;;;;;6.17;1.83;;;17.00;90.40;;;;;;5074767;28;20479;-59
2022/07/27 06:00:40;;;;;;;7.57;2.40;;;17.00;90.40;;;;;;5074749;28;20996;-61
2022/07/27 06:03:07;;;;;;;3.50;1.80;;;17.00;90.30;;;;;;5063440;28;20447;-59
2022/07/27 06:05:35;;;;;;;3.70;1.90;;;16.90;90.00;;;;;;5062928;28;20956;-59
2022/07/27 06:08:05;;;;;;;4.33;1.60;;;17.00;89.90;;;;;;5057103;28;20593;-59
2022/07/27 06:10:36;;;;;;;2.90;1.60;;;17.00;89.20;;;;;;5055087;28;20480;-59
2022/07/27 06:13:04;;;;;;;5.40;2.07;;;17.10;88.40;;;;;;5056211;28;20476;-57
2022/07/27 06:15:32;;;;;;;4.00;1.87;;;17.10;87.40;;;;;;5054622;28;20444;-58
2022/07/27 06:18:01;;;;;;;5.70;2.20;;;17.10;86.60;;;;;;5055539;28;20452;-58
2022/07/27 06:20:28;;;;;;;4.30;1.93;;;17.10;85.10;;;;;;5055120;28;20471;-59
2022/07/27 06:22:58;;;;;;;3.90;1.70;;;17.00;83.90;;;;;;5062562;28;20994;-58
2022/07/27 06:25:28;;;;;;;2.20;1.67;;;16.90;83.50;;;;;;5074444;28;20528;-58
2022/07/27 06:27:57;;;;;;;4.63;1.83;;;16.80;83.40;;;;;;5070752;28;20901;-58
2022/07/27 06:30:24;;;;;;;5.40;1.73;;;16.80;83.30;;;;;;5054335;28;20867;-58
2022/07/27 06:32:51;;;;;;;3.77;1.70;;;16.70;82.80;;;;;;5053203;28;21026;-58
2022/07/27 06:35:18;;;;;;;4.80;1.70;;;16.70;82.70;;;;;;5054111;28;20539;-59
2022/07/27 06:37:51;;;;;;;5.60;2.23;;;16.70;82.90;;;;;;5055813;28;20484;-60
2022/07/27 06:40:19;;;;;;;4.13;2.13;;;16.60;83.30;;;;;;5059682;28;20503;-59
2022/07/27 06:42:46;;;;;;;3.63;1.70;;;16.60;83.70;;;;;;5056276;28;20944;-59
2022/07/27 06:45:15;;;;;;;5.60;2.07;;;16.70;84.10;;;;;;5053919;28;20444;-60
2022/07/27 06:47:42;;;;;;;2.07;1.33;;;16.80;83.20;;;;;;5054103;28;20452;-58
2022/07/27 06:50:10;;;;;;;3.30;2.13;;;16.80;81.90;;;;;;5053649;28;20530;-58
2022/07/27 06:52:37;;;;;;;3.80;1.40;;;16.90;81.40;;;;;;5053714;28;20626;-58
2022/07/27 06:55:05;;;;;;;5.63;1.77;;;17.00;81.10;;;;;;5059910;28;20532;-58
2022/07/27 06:57:32;;;;;;;3.63;1.43;;;17.00;80.40;;;;;;5074193;28;20935;-59
2022/07/27 07:00:00;;;;;;;3.97;1.73;;;17.10;80.00;;;;;;5073939;28;20542;-58
2022/07/27 07:02:28;;;;;;;3.00;1.50;;;17.10;79.60;;;;;;5072345;28;20543;-59
2022/07/27 07:04:55;;;;;;;2.73;1.03;;;17.10;79.20;;;;;;5065264;28;20531;-59
2022/07/27 07:07:23;;;;;;;4.07;1.50;;;17.20;77.50;;;;;;5057600;28;20455;-58
2022/07/27 07:09:50;;;;;;;5.50;1.17;;;17.20;75.60;;;;;;5053270;28;20488;-59
2022/07/27 07:12:17;;;;;;;2.80;1.20;;;17.30;74.50;;;;;;5053791;28;20551;-59
2022/07/27 07:14:45;;;;;;;2.27;1.30;;;17.50;72.80;;;;;;5053589;28;20464;-59
2022/07/27 07:17:12;;;;;;;6.60;1.40;;;17.60;71.20;;;;;;5053536;28;20448;-59
2022/07/27 07:19:40;;;;;;;2.40;1.17;;;17.60;69.40;;;;;;5053172;28;20510;-60
2022/07/27 07:22:08;;;;;;;1.80;1.27;;;17.70;68.50;;;;;;5066038;28;20941;-59
2022/07/27 07:24:35;;;;;;;3.60;1.40;;;17.70;67.10;;;;;;5064370;28;21063;-58
2022/07/27 07:27:02;;;;;;;2.80;1.30;;;17.80;65.40;;;;;;5054048;28;20547;-61
2022/07/27 07:29:29;;;;;;;1.10;0.93;;;17.90;64.90;;;;;;5053240;28;20560;-58
2022/07/27 07:31:57;;;;;;;6.37;1.70;;;18.00;64.70;;;;;;5054329;28;20530;-59
2022/07/27 07:34:24;;;;;;;4.53;1.53;;;18.20;64.20;;;;;;5053150;28;20539;-57
2022/07/27 07:36:52;;;;;;;1.97;1.20;;;18.50;63.60;;;;;;5053447;28;20546;-59
2022/07/27 07:39:20;;;;;;;3.70;1.20;;;18.60;62.20;;;;;;5057467;28;20539;-59
2022/07/27 07:41:47;;;;;;;3.27;1.47;;;18.70;61.40;;;;;;5054221;28;20547;-58
2022/07/27 07:44:14;;;;;;;3.83;1.27;;;18.60;61.20;;;;;;5053129;28;20548;-57
2022/07/27 07:46:41;;;;;;;5.13;1.10;;;18.50;62.10;;;;;;5053345;28;20443;-59
2022/07/27 07:49:09;;;;;;;3.10;1.30;;;18.40;60.50;;;;;;5053252;28;21114;-58
2022/07/27 07:51:36;;;;;;;3.60;1.20;;;18.30;60.20;;;;;;5053326;28;20464;-60
2022/07/27 07:54:05;;;;;;;4.73;1.17;;;18.30;60.50;;;;;;5054450;28;20542;-60
2022/07/27 07:56:32;;;;;;;2.87;1.00;;;18.30;60.10;;;;;;5055732;28;20475;-60
2022/07/27 07:59:00;;;;;;;3.60;1.47;;;18.40;59.70;;;;;;5056039;28;20444;-59
2022/07/27 08:01:27;;;;;;;3.70;1.30;;;18.40;60.00;;;;;;5057329;28;20486;-60
2022/07/27 08:03:54;;;;;;;3.33;1.30;;;18.60;58.10;;;;;;5055518;28;20451;-60
2022/07/27 08:06:21;;;;;;;2.60;0.90;;;18.80;57.00;;;;;;5055127;28;20539;-62
2022/07/27 08:08:48;;;;;;;3.00;1.30;;;18.90;56.10;;;;;;5054533;28;20484;-59
2022/07/27 08:11:17;;;;;;;2.30;1.07;;;19.10;55.20;;;;;;5054190;28;20471;-58
2022/07/27 08:13:44;;;;;;;5.33;1.17;;;19.10;53.90;;;;;;5054925;28;20804;-60
2022/07/27 08:16:12;;;;;;;2.03;1.10;;;19.10;53.50;;;;;;5055346;28;20501;-59
2022/07/27 08:18:39;;;;;;;1.70;0.90;;;19.00;53.70;;;;;;5055055;28;20855;-59
2022/07/27 08:21:06;;;;;;;2.53;1.07;;;19.00;53.90;;;;;;5054435;28;20507;-58
2022/07/27 08:23:33;;;;;;;4.43;1.13;;;18.90;53.90;;;;;;5054233;28;20887;-61
2022/07/27 08:26:01;;;;;;;2.00;0.80;;;18.90;53.80;;;;;;5053853;28;20526;-60
2022/07/27 08:28:29;;;;;;;3.10;1.00;;;18.90;53.40;;;;;;5053515;28;20539;-60
2022/07/27 08:30:57;;;;;;;2.53;1.07;;;18.90;53.30;;;;;;5052589;28;20551;-59
2022/07/27 08:33:24;;;;;;;1.63;0.90;;;18.90;53.30;;;;;;5053612;28;20467;-59
2022/07/27 08:35:51;;;;;;;2.93;0.83;;;18.90;52.50;;;;;;5052780;28;20813;-59
2022/07/27 08:38:19;;;;;;;2.43;0.90;;;19.00;52.10;;;;;;5053521;28;20454;-59
2022/07/27 08:40:47;;;;;;;2.60;0.90;;;19.00;50.60;;;;;;5052335;28;20474;-60
2022/07/27 08:43:16;;;;;;;4.30;1.10;;;19.10;50.30;;;;;;5052629;28;20535;-60
2022/07/27 08:45:51;;;;;;;2.07;1.00;;;19.20;49.90;;;;;;5053009;28;20460;-61
2022/07/27 08:48:18;;;;;;;3.40;1.30;;;19.30;49.70;;;;;;5052421;28;20432;-61
2022/07/27 08:50:49;;;;;;;3.90;1.40;;;19.50;49.40;;;;;;5052692;28;20484;-60
2022/07/27 08:53:17;;;;;;;2.73;1.00;;;19.70;49.10;;;;;;5052762;28;20796;-61
2022/07/27 08:55:46;;;;;;;2.17;0.90;;;19.70;48.30;;;;;;5054061;28;20835;-60
2022/07/27 08:58:14;;;;;;;1.60;0.80;;;19.70;48.10;;;;;;5056336;28;20517;-60
2022/07/27 09:00:45;;;;;;;2.80;1.50;;;19.90;47.10;;;;;;5056027;28;20468;-59
2022/07/27 09:03:13;;;;;;;2.20;0.90;;;20.00;46.80;;;;;;5056029;28;20467;-59
2022/07/27 09:05:43;;;;;;;3.43;1.03;;;20.10;46.60;;;;;;5055748;28;20440;-60
2022/07/27 09:08:10;;;;;;;2.87;1.17;;;20.30;46.00;;;;;;5055341;28;20798;-59
2022/07/27 09:10:38;;;;;;;1.97;1.10;;;20.20;45.40;;;;;;5056148;28;20563;-59
2022/07/27 09:13:18;;;;;;;3.23;0.90;;;20.20;45.60;;;;;;5055967;28;20543;-59
2022/07/27 09:15:47;;;;;;;2.77;1.10;;;20.30;45.30;;;;;;5062329;28;20466;-60
2022/07/27 09:18:19;;;;;;;3.63;0.90;;;20.50;45.00;;;;;;5061021;28;20479;-59
2022/07/27 09:20:49;;;;;;;2.43;1.00;;;20.60;44.40;;;;;;5060091;28;20915;-60
2022/07/27 09:23:27;;;;;;;2.93;0.93;;;20.70;44.00;;;;;;5058845;28;20451;-60
2022/07/27 09:26:09;;;;;;;4.23;1.13;;;20.60;43.90;;;;;;5056209;28;20432;-60
2022/07/27 09:28:37;;;;;;;2.17;1.10;;;20.60;43.90;;;;;;5056225;28;20502;-61
2022/07/27 09:31:10;;;;;;;3.50;1.20;;;20.80;43.80;;;;;;5055565;28;20517;-60
2022/07/27 09:33:46;;;;;;;1.37;0.80;;;21.00;43.60;;;;;;5055677;28;20485;-60
2022/07/27 09:36:13;;;;;;;1.10;0.90;;;21.00;43.60;;;;;;5055343;28;20499;-60
2022/07/27 09:38:51;;;;;;;1.60;0.90;;;20.90;43.30;;;;;;5055476;28;20474;-60
2022/07/27 09:41:18;;;;;;;2.40;1.03;;;20.60;43.40;;;;;;5055581;28;20563;-60
2022/07/27 09:43:47;;;;;;;2.80;1.10;;;20.40;43.70;;;;;;5055654;28;20899;-60
2022/07/27 09:46:16;;;;;;;1.50;1.03;;;20.40;44.30;;;;;;5055408;28;21025;-61
2022/07/27 09:48:44;;;;;;;1.77;0.80;;;20.60;44.10;;;;;;5056492;28;20965;-59
2022/07/27 09:51:12;;;;;;;1.03;0.80;;;20.60;43.80;;;;;;5055993;28;20489;-60
2022/07/27 09:53:39;;;;;;;2.90;0.93;;;20.50;44.10;;;;;;5055167;28;20448;-60
2022/07/27 09:56:08;;;;;;;1.63;1.00;;;20.70;44.00;;;;;;5054814;28;20484;-59
2022/07/27 09:58:40;;;;;;;3.47;1.13;;;20.80;43.80;;;;;;5055222;28;20480;-59
2022/07/27 10:01:08;;;;;;;3.00;1.00;;;20.70;43.70;;;;;;5055649;28;20460;-59
2022/07/27 10:03:36;;;;;;;2.20;1.13;;;20.50;43.90;;;;;;5055800;28;20999;-59
2022/07/27 10:06:04;;;;;;;2.50;1.00;;;20.30;44.10;;;;;;5055245;28;20566;-60
2022/07/27 10:08:33;;;;;;;1.93;1.00;;;20.20;44.10;;;;;;5055441;28;20469;-60
2022/07/27 10:11:00;;;;;;;5.70;1.23;;;20.30;43.70;;;;;;5055717;28;20539;-59
2022/07/27 10:13:27;;;;;;;1.90;1.10;;;20.60;43.40;;;;;;5056007;28;20545;-59
2022/07/27 10:15:55;;;;;;;3.73;1.00;;;20.80;43.10;;;;;;5055375;28;20999;-61
2022/07/27 10:18:31;;;;;;;3.47;1.20;;;20.80;42.30;;;;;;5055486;28;20524;-60
2022/07/27 10:21:07;;;;;;;2.23;1.10;;;20.70;42.60;;;;;;5055407;28;20499;-57
2022/07/27 10:23:37;;;;;;;2.00;0.90;;;20.90;42.70;;;;;;5055431;28;20438;-60
2022/07/27 10:26:17;;;;;;;3.90;0.90;;;21.10;42.70;;;;;;5054849;28;20816;-59
2022/07/27 10:28:53;;;;;;;2.13;1.20;;;21.10;41.80;;;;;;5055489;28;20522;-59
2022/07/27 10:31:24;;;;;;;2.67;1.10;;;20.90;42.00;;;;;;5054680;28;20487;-60
2022/07/27 10:33:52;;;;;;;2.53;1.20;;;20.80;42.40;;;;;;5054610;28;20425;-61
2022/07/27 10:36:45;;;;;;;3.00;1.03;;;20.80;42.70;;;;;;5055740;28;20450;-60
2022/07/27 10:39:33;;;;;;;3.30;1.10;;;21.10;42.90;;;;;;5054627;28;20520;-61
2022/07/27 10:42:27;;;;;;;2.67;1.10;;;21.40;42.40;;;;;;5055075;28;20560;-60
2022/07/27 10:45:01;;;;;;;1.93;0.90;;;21.60;42.00;;;;;;5054775;28;20434;-60
2022/07/27 10:47:31;;;;;;;1.70;0.97;;;21.50;41.80;;;;;;5054997;28;20465;-59
2022/07/27 10:50:28;;;;;;;3.80;1.07;;;21.30;41.80;;;;;;5054373;28;20501;-60
2022/07/27 10:52:59;;;;;;;1.40;1.20;;;21.20;42.20;;;;;;5031684;28;20457;-60
2022/07/27 10:55:51;;;;;;;3.83;1.30;;;21.10;42.40;;;;;;5054662;28;20438;-60
2022/07/27 10:58:57;;;;;;;3.27;1.60;;;20.90;42.20;;;;;;5046105;28;20493;-61
2022/07/27 11:01:24;;;;;;;1.90;1.40;;;20.80;42.20;;;;;;5053116;28;20505;-60
2022/07/27 11:03:52;;;;;;;2.60;1.50;;;20.80;42.10;;;;;;5054518;28;20486;-59
2022/07/27 11:06:30;;;;;;;3.67;1.30;;;20.90;42.20;;;;;;5054864;28;20979;-60
2022/07/27 11:09:01;;;;;;;3.97;1.23;;;21.00;42.50;;;;;;5054155;28;20556;-61
2022/07/27 11:11:33;;;;;;;4.73;1.40;;;20.90;43.00;;;;;;5056302;28;20490;-61
2022/07/27 11:14:00;;;;;;;3.43;1.23;;;20.80;43.30;;;;;;5054443;28;20527;-60
2022/07/27 11:16:29;;;;;;;3.20;1.47;;;20.80;43.40;;;;;;5054482;28;20482;-59
2022/07/27 11:19:05;;;;;;;3.17;0.90;;;20.80;43.40;;;;;;5054717;28;20479;-60
2022/07/27 11:21:34;;;;;;;2.13;1.00;;;21.00;43.00;;;;;;5054729;28;20469;-60
2022/07/27 11:24:09;;;;;;;3.70;1.10;;;21.20;42.60;;;;;;5054536;28;20453;-60
2022/07/27 11:26:39;;;;;;;3.20;1.40;;;21.50;42.20;;;;;;5054656;28;20533;-61
2022/07/27 11:29:10;;;;;;;2.40;1.10;;;21.80;41.80;;;;;;5054983;28;20542;-60
2022/07/27 11:31:39;;;;;;;3.40;1.63;;;22.00;41.60;;;;;;5054316;28;20517;-61
2022/07/27 11:34:07;;;;;;;4.87;1.20;;;22.00;41.60;;;;;;5054255;28;20505;-60
2022/07/27 11:36:42;;;;;;;1.90;1.13;;;21.90;41.70;;;;;;5054080;28;20451;-60
2022/07/27 11:39:12;;;;;;;2.80;1.50;;;21.80;42.00;;;;;;5054410;28;20523;-60
2022/07/27 11:41:41;;;;;;;4.77;1.40;;;21.70;41.60;;;;;;5053816;28;20467;-61
2022/07/27 11:44:09;;;;;;;2.73;0.90;;;21.60;41.40;;;;;;5054180;28;20504;-60
2022/07/27 11:46:41;;;;;;;2.30;1.00;;;21.40;40.80;;;;;;5053978;28;20461;-58
2022/07/27 11:49:10;;;;;;;4.93;1.00;;;21.40;40.40;;;;;;5055382;28;20797;-59
2022/07/27 11:51:40;;;;;;;2.40;1.23;;;21.60;39.90;;;;;;5055828;28;20485;-58
2022/07/27 11:54:11;;;;;;;1.43;0.80;;;21.90;39.20;;;;;;5063139;28;20478;-62
2022/07/27 11:56:42;;;;;;;5.00;2.03;;;22.10;38.40;;;;;;5058689;28;20467;-60
2022/07/27 11:59:14;;;;;;;1.23;0.70;;;22.40;38.00;;;;;;5054210;28;20484;-59
2022/07/27 12:01:45;;;;;;;2.87;1.13;;;22.70;37.60;;;;;;5053231;28;20856;-59
2022/07/27 12:04:18;;;;;;;2.20;1.10;;;22.80;37.40;;;;;;5053309;28;20470;-60
2022/07/27 12:06:48;;;;;;;3.07;1.20;;;22.50;37.90;;;;;;5053570;28;20435;-60
2022/07/27 12:09:18;;;;;;;2.20;1.10;;;22.20;38.30;;;;;;5053298;28;20489;-60
2022/07/27 12:11:54;;;;;;;1.60;1.20;;;22.10;38.70;;;;;;5053524;28;20490;-60
2022/07/27 12:14:33;;;;;;;3.70;0.90;;;21.80;38.30;;;;;;5056692;28;20465;-61
2022/07/27 12:17:12;;;;;;;1.47;1.10;;;21.80;38.70;;;;;;5053893;28;20518;-60
2022/07/27 12:19:40;;;;;;;4.30;1.40;;;21.90;38.40;;;;;;5053383;28;20544;-59
2022/07/27 12:22:07;;;;;;;2.50;1.10;;;21.90;38.50;;;;;;5053106;28;20545;-59
2022/07/27 12:24:38;;;;;;;1.80;1.10;;;21.90;38.50;;;;;;5053542;28;20493;-60
2022/07/27 12:27:08;;;;;;;2.20;1.10;;;21.80;38.40;;;;;;5053300;28;20557;-59
2022/07/27 12:30:01;;;;;;;2.50;0.97;;;21.70;38.80;;;;;;5053671;28;20465;-59
2022/07/27 12:32:30;;;;;;;2.20;1.00;;;21.60;39.00;;;;;;5056725;28;20566;-59
2022/07/27 12:34:57;;;;;;;3.60;1.00;;;21.60;39.20;;;;;;5056973;28;20542;-60
2022/07/27 12:37:29;;;;;;;3.13;1.00;;;21.60;39.30;;;;;;5057260;28;20836;-60
2022/07/27 12:39:58;;;;;;;2.60;1.00;;;21.60;39.40;;;;;;5056806;28;20569;-60
2022/07/27 12:42:36;;;;;;;1.17;0.70;;;21.90;39.60;;;;;;5057115;28;20856;-59
2022/07/27 12:45:18;;;;;;;3.03;1.30;;;22.50;39.10;;;;;;5057044;28;20517;-61
2022/07/27 12:47:46;;;;;;;4.23;1.30;;;22.90;38.80;;;;;;5056659;28;20431;-60
2022/07/27 12:50:15;;;;;;;2.97;1.10;;;23.20;39.00;;;;;;5057825;28;20508;-60
2022/07/27 12:52:46;;;;;;;2.50;1.20;;;23.30;38.30;;;;;;5059551;28;20440;-60
2022/07/27 12:55:15;;;;;;;3.70;1.53;;;23.40;38.30;;;;;;5059348;28;20424;-58
2022/07/27 12:57:42;;;;;;;2.10;0.90;;;23.40;38.20;;;;;;5063252;28;20467;-59
2022/07/27 13:00:13;;;;;;;4.97;1.30;;;23.20;38.10;;;;;;5059147;28;20546;-60
2022/07/27 13:02:41;;;;;;;2.23;1.33;;;22.70;38.10;;;;;;5056768;28;20538;-59
2022/07/27 13:05:10;;;;;;;1.93;1.10;;;22.40;38.80;;;;;;5058258;28;20529;-58